Huvudsida
METAR-TAF:

METAR-TAF

Flygplatser :

Århus flygplats

Århus, Danmark

latitud: 56-18N, longitud: 010-37E, höjd: 23 m

Aktuellt väderrapport

Denna rapport gjordes för 14 minuter sedan, klockan 06:20 UTC
Vind 11 kt från väst
Temperatur 12°C
Fuktighet 71%
Tryck 1007 hPa
Sikt 10 km eller mer

METAR: EKAH 210620Z AUTO 27011KT 9999NDV BKN130/// BKN170/// 12/07 Q1007

Tid: 08:34 (06:34 UTC)

Väderprognos

Denna rapport gjordes för 1 timme och 40 minuter sedan, klockan 04:54 UTC
Prognos gäller från 21 kl. 06 UTC till 22 kl. 06 UTC
Vind 12 kt från väst/nordväst
Sikt 10 km eller mer
Brutna moln på en höjd av 3000 ft
Temporärt
från 21 kl. 10 UTC till 21 kl. 18 UTC
Vind 20 kt från väst/nordväst i byarna ända upp till 32 kt

TAF: EKAH 210454Z 2106/2206 29012KT 9999 BKN030 TEMPO 2110/2118 30020G32KT

Aktuella väderrapporter och prognoser från 4000 flygplatser (METAR- och TAF-rapporter).

De tillgängliga stationerna syns som gula och röda prickar på kartan.

För musen över prickarna för att se namnen på stationerna.

Klicka sedan för att få väderrapporter och prognoser.

För att ändra kartan: Klicka på de gröna knapparna med ett svart kors på för att zooma in; den gröna knappen med ett streck på för att zooma ut; eller på de gröna pilarna för angränsande kartor.


METAR-TAF: